Time;durP1;ratioP1;P1;durP2;ratioP2;P2;SDS_P1;SDS_P2;PMS_P1;PMS_P2;Temp;Humidity;BMP_temperature;BMP_pressure;BME280_temperature;BME280_humidity;BME280_pressure;Samples;Min_cycle;Max_cycle;Signal;HPM_P1;HPM_P2
2024/03/24 00:00:24;;;;;;;4.50;3.50;;;;;;;5.41;82.98;99035.66;128210;1281;106448;-79
2024/03/24 00:03:49;;;;;;;6.70;4.50;;;;;;;5.43;82.86;99042.52;128107;1278;110586;-79
2024/03/24 00:06:55;;;;;;;6.10;4.50;;;;;;;5.45;82.90;99044.59;128152;1292;108640;-78
2024/03/24 00:10:00;;;;;;;6.40;4.20;;;;;;;5.51;82.80;99034.66;128249;1279;106379;-78
2024/03/24 00:13:05;;;;;;;5.40;3.60;;;;;;;5.54;82.56;99026.30;128483;1281;109001;-79
2024/03/24 00:16:10;;;;;;;5.40;4.20;;;;;;;5.49;82.55;99022.07;128448;1277;107862;-78
2024/03/24 00:19:15;;;;;;;6.40;4.90;;;;;;;5.47;82.53;99022.73;128482;1279;108447;-79
2024/03/24 00:22:21;;;;;;;6.00;4.40;;;;;;;5.45;82.57;99020.92;128502;1282;106642;-78
2024/03/24 00:25:26;;;;;;;6.40;4.80;;;;;;;5.45;82.42;99016.89;128279;1282;108860;-78
2024/03/24 00:28:32;;;;;;;6.00;5.00;;;;;;;5.43;82.36;99013.21;128090;1281;108925;-78
2024/03/24 00:31:37;;;;;;;7.70;5.40;;;;;;;5.37;82.21;99015.59;128132;1281;108970;-79
2024/03/24 00:34:45;;;;;;;9.60;5.80;;;;;;;5.31;82.40;99009.98;128101;1279;108688;-79
2024/03/24 00:37:51;;;;;;;8.90;5.50;;;;;;;5.34;82.50;99011.13;128041;1276;107877;-78
2024/03/24 00:40:56;;;;;;;8.40;5.20;;;;;;;5.36;82.26;99006.83;128091;1281;108866;-78
2024/03/24 00:44:02;;;;;;;6.40;4.70;;;;;;;5.39;81.95;99006.06;128045;1277;108854;-81
2024/03/24 00:47:08;;;;;;;9.40;5.60;;;;;;;5.40;81.88;99000.61;128512;1281;108509;-81
2024/03/24 00:50:14;;;;;;;8.40;5.70;;;;;;;5.39;81.65;98997.00;128376;1281;108909;-81
2024/03/24 00:53:19;;;;;;;8.00;4.70;;;;;;;5.32;81.61;98993.99;128238;1281;108244;-78
2024/03/24 00:56:24;;;;;;;7.00;4.20;;;;;;;5.27;81.64;98995.56;128461;1282;108872;-81
2024/03/24 00:59:29;;;;;;;7.60;4.70;;;;;;;5.23;81.71;98987.98;128451;1277;108552;-79
2024/03/24 01:02:34;;;;;;;8.20;4.80;;;;;;;5.20;81.62;98981.44;128218;1279;108423;-79
2024/03/24 01:05:40;;;;;;;7.70;4.30;;;;;;;5.17;81.64;98985.58;128533;1277;108833;-79
2024/03/24 01:08:45;;;;;;;6.30;3.60;;;;;;;5.15;81.76;98985.98;128386;1281;107024;-78
2024/03/24 01:11:50;;;;;;;7.40;3.90;;;;;;;5.11;81.72;98982.98;128407;1281;107729;-78
2024/03/24 01:14:55;;;;;;;6.60;3.50;;;;;;;5.05;81.48;98969.10;128403;1281;108733;-79
2024/03/24 01:18:00;;;;;;;6.60;3.50;;;;;;;5.01;81.71;98968.96;128370;1279;107724;-78
2024/03/24 01:21:06;;;;;;;5.90;3.10;;;;;;;5.01;81.72;98970.21;128291;1281;106477;-79
2024/03/24 01:24:12;;;;;;;5.70;3.30;;;;;;;5.04;81.47;98971.38;128146;1281;108722;-78
2024/03/24 01:27:17;;;;;;;4.50;3.00;;;;;;;5.06;81.56;98967.61;128197;1281;107809;-79
2024/03/24 01:30:22;;;;;;;6.20;3.20;;;;;;;5.10;81.52;98952.79;128380;1281;108223;-79
2024/03/24 01:33:29;;;;;;;4.90;3.10;;;;;;;5.12;81.26;98943.77;128488;1281;108956;-78
2024/03/24 01:36:34;;;;;;;6.20;3.40;;;;;;;5.10;81.35;98937.02;128452;1282;108321;-78
2024/03/24 01:39:43;;;;;;;6.30;3.40;;;;;;;5.10;81.35;98932.34;128342;1282;108855;-78
2024/03/24 01:42:48;;;;;;;4.30;3.20;;;;;;;5.08;81.07;98933.89;128384;1279;107748;-78
2024/03/24 01:45:53;;;;;;;5.20;3.30;;;;;;;5.04;81.23;98928.51;128524;1279;106710;-78
2024/03/24 01:48:59;;;;;;;5.10;3.00;;;;;;;5.02;81.19;98925.18;128290;1279;106418;-79
2024/03/24 01:52:07;;;;;;;7.30;3.80;;;;;;;5.00;81.25;98921.09;128068;1277;108610;-78
2024/03/24 01:55:13;;;;;;;4.60;3.00;;;;;;;4.96;81.16;98919.63;128156;1276;107656;-78
2024/03/24 01:58:18;;;;;;;5.60;2.60;;;;;;;4.92;81.35;98920.85;128249;1284;108945;-79
2024/03/24 02:01:23;;;;;;;5.20;2.60;;;;;;;4.91;81.24;98925.34;128240;1281;107776;-78
2024/03/24 02:04:28;;;;;;;4.80;2.90;;;;;;;4.90;81.06;98927.02;128382;1281;107834;-79
2024/03/24 02:07:33;;;;;;;5.50;3.60;;;;;;;4.93;81.10;98930.08;128459;1281;107838;-79
2024/03/24 02:10:39;;;;;;;5.60;3.10;;;;;;;4.98;81.07;98922.03;128161;1281;105628;-78
2024/03/24 02:13:44;;;;;;;5.80;3.00;;;;;;;5.03;80.97;98921.25;128291;1281;106949;-78
2024/03/24 02:16:51;;;;;;;4.70;3.20;;;;;;;5.04;81.24;98919.74;128356;1281;107966;-81
2024/03/24 02:19:56;;;;;;;6.40;3.80;;;;;;;5.02;81.14;98919.55;128502;1281;107570;-81
2024/03/24 02:23:01;;;;;;;7.00;3.50;;;;;;;5.00;81.28;98921.52;128603;1281;108724;-78
2024/03/24 02:26:06;;;;;;;6.60;4.00;;;;;;;4.97;81.12;98927.98;128589;1279;106685;-78
2024/03/24 02:29:12;;;;;;;6.80;3.90;;;;;;;4.95;81.26;98932.88;128555;1281;108824;-78
2024/03/24 02:32:18;;;;;;;6.70;4.20;;;;;;;4.94;81.35;98940.09;128552;1282;110302;-79
2024/03/24 02:35:24;;;;;;;7.20;3.80;;;;;;;4.90;81.16;98939.02;128574;1279;107888;-78
2024/03/24 02:38:30;;;;;;;7.40;4.10;;;;;;;4.86;81.30;98937.41;128545;1293;108819;-79
2024/03/24 02:41:35;;;;;;;8.40;4.10;;;;;;;4.87;81.36;98934.78;128592;1281;106586;-78
2024/03/24 02:44:41;;;;;;;8.10;4.00;;;;;;;4.90;81.63;98939.70;128605;1279;108360;-78
2024/03/24 02:47:46;;;;;;;7.30;4.20;;;;;;;4.96;81.50;98940.23;128365;1281;108508;-79
2024/03/24 02:50:51;;;;;;;6.80;4.50;;;;;;;5.00;81.43;98945.80;128368;1279;109775;-77
2024/03/24 02:53:56;;;;;;;6.00;3.80;;;;;;;5.03;81.45;98942.88;128200;1281;108788;-79
2024/03/24 02:57:01;;;;;;;6.80;4.30;;;;;;;5.01;81.37;98945.52;128194;1279;108869;-78
2024/03/24 03:00:09;;;;;;;9.00;4.90;;;;;;;4.99;81.36;98944.89;128546;1282;109613;-78
2024/03/24 03:03:14;;;;;;;7.60;4.50;;;;;;;4.98;81.32;98945.36;128563;1282;107140;-78
2024/03/24 03:06:20;;;;;;;9.50;5.00;;;;;;;4.93;81.29;98949.55;128499;1279;107148;-78
2024/03/24 03:09:26;;;;;;;7.10;5.10;;;;;;;4.91;81.57;98959.42;128319;1281;109115;-78
2024/03/24 03:12:31;;;;;;;8.50;4.70;;;;;;;4.87;81.74;98960.25;128081;1281;108833;-78
2024/03/24 03:15:36;;;;;;;9.90;5.00;;;;;;;4.85;81.46;98957.63;128293;1281;109010;-80
2024/03/24 03:18:41;;;;;;;9.60;4.80;;;;;;;4.87;81.55;98958.17;128405;1282;107002;-79
2024/03/24 03:21:46;;;;;;;8.70;5.60;;;;;;;4.94;81.70;98960.73;128154;1289;107674;-79
2024/03/24 03:24:51;;;;;;;8.90;5.40;;;;;;;5.01;81.61;98958.08;128173;1277;107659;-79
2024/03/24 03:27:56;;;;;;;8.00;5.00;;;;;;;5.07;81.83;98952.38;128224;1281;106602;-78
2024/03/24 03:31:02;;;;;;;10.30;6.10;;;;;;;5.13;81.84;98948.98;128168;1283;107863;-78
2024/03/24 03:34:07;;;;;;;10.50;6.30;;;;;;;5.16;81.66;98955.61;128150;1281;108754;-78
2024/03/24 03:37:13;;;;;;;8.20;5.10;;;;;;;5.19;81.65;98954.42;128281;1277;107032;-78
2024/03/24 03:40:18;;;;;;;9.80;5.80;;;;;;;5.17;81.55;98955.30;128323;1281;108750;-79
2024/03/24 03:43:23;;;;;;;11.10;6.90;;;;;;;5.14;81.70;98955.44;128080;1281;109683;-78
2024/03/24 03:46:28;;;;;;;9.80;5.90;;;;;;;5.13;81.69;98951.26;128093;1277;106180;-78
2024/03/24 03:49:34;;;;;;;9.10;5.70;;;;;;;5.14;81.80;98949.25;128415;1281;108835;-78
2024/03/24 03:52:39;;;;;;;9.60;5.60;;;;;;;5.17;81.94;98948.29;128233;1281;107936;-78
2024/03/24 03:55:47;;;;;;;11.90;6.20;;;;;;;5.21;82.01;98946.17;128052;1281;108912;-78
2024/03/24 03:58:52;;;;;;;9.90;6.10;;;;;;;5.29;81.94;98949.89;128026;1282;107098;-78
2024/03/24 04:01:57;;;;;;;9.60;5.70;;;;;;;5.37;82.01;98947.36;128058;1281;106525;-78
2024/03/24 04:05:09;;;;;;;10.40;6.60;;;;;;;5.41;81.75;98948.27;128289;1276;108048;-78
2024/03/24 04:08:14;;;;;;;11.80;6.60;;;;;;;5.43;82.05;98950.59;128394;1281;107726;-78
2024/03/24 04:11:19;;;;;;;11.40;7.20;;;;;;;5.43;81.98;98944.20;128045;1277;106923;-78
2024/03/24 04:14:25;;;;;;;12.20;6.90;;;;;;;5.48;81.72;98946.58;128037;1281;107789;-78
2024/03/24 04:17:31;;;;;;;12.40;7.60;;;;;;;5.49;81.90;98948.23;128114;1281;107844;-79
2024/03/24 04:20:38;;;;;;;12.10;8.50;;;;;;;5.49;81.79;98948.98;128043;1281;106780;-79
2024/03/24 04:23:44;;;;;;;13.10;7.70;;;;;;;5.46;81.87;98940.42;128080;1281;107875;-78
2024/03/24 04:26:49;;;;;;;11.40;7.30;;;;;;;5.44;81.93;98929.48;128144;1281;106495;-79
2024/03/24 04:29:54;;;;;;;11.70;7.90;;;;;;;5.44;81.84;98932.83;128074;1281;108524;-78
2024/03/24 04:33:00;;;;;;;12.30;7.60;;;;;;;5.45;81.89;98932.61;128082;1279;106534;-78
2024/03/24 04:36:06;;;;;;;12.30;8.80;;;;;;;5.47;81.71;98933.55;128127;1281;109084;-78
2024/03/24 04:39:12;;;;;;;13.70;8.70;;;;;;;5.49;81.98;98939.73;128115;1278;107985;-78
2024/03/24 04:42:17;;;;;;;13.20;9.00;;;;;;;5.52;81.94;98942.79;128086;1278;108668;-78
2024/03/24 04:45:22;;;;;;;14.40;9.90;;;;;;;5.55;81.90;98941.48;128142;1281;107888;-78
2024/03/24 04:48:27;;;;;;;13.60;10.60;;;;;;;5.53;81.74;98939.58;128185;1282;106827;-78
2024/03/24 04:51:35;;;;;;;16.40;11.30;;;;;;;5.47;81.55;98942.41;128089;1282;108941;-78
2024/03/24 04:54:42;;;;;;;18.70;11.70;;;;;;;5.36;81.75;98944.63;128399;1279;106475;-78
2024/03/24 04:57:48;;;;;;;15.60;10.30;;;;;;;5.29;81.82;98946.02;128396;1278;106701;-78
2024/03/24 05:00:53;;;;;;;14.80;9.80;;;;;;;5.29;81.90;98945.40;128256;1285;106596;-78
2024/03/24 05:03:58;;;;;;;14.30;10.30;;;;;;;5.33;81.86;98945.42;128124;1281;107543;-78
2024/03/24 05:07:04;;;;;;;15.90;10.60;;;;;;;5.33;81.71;98937.30;128634;1281;108100;-78
2024/03/24 05:10:10;;;;;;;18.10;10.90;;;;;;;5.37;81.68;98929.73;128532;1279;108887;-78
2024/03/24 05:13:15;;;;;;;23.10;13.20;;;;;;;5.41;81.90;98923.59;128478;1282;108750;-78
2024/03/24 05:16:21;;;;;;;17.80;11.80;;;;;;;5.50;81.71;98919.23;128429;1281;106579;-78
2024/03/24 05:19:27;;;;;;;23.80;13.20;;;;;;;5.55;81.61;98921.35;128358;1278;108860;-78
2024/03/24 05:22:32;;;;;;;18.10;11.30;;;;;;;5.60;81.56;98919.16;128458;1277;107520;-79
2024/03/24 05:25:40;;;;;;;17.20;12.00;;;;;;;5.59;81.32;98918.19;128164;1278;107874;-79
2024/03/24 05:28:46;;;;;;;18.60;11.90;;;;;;;5.54;81.46;98916.77;128205;1281;106740;-78
2024/03/24 05:31:56;;;;;;;17.40;11.30;;;;;;;5.50;81.48;98916.68;127974;1281;108891;-80
2024/03/24 05:35:01;;;;;;;18.40;11.30;;;;;;;5.45;81.31;98930.58;128058;1281;107522;-80
2024/03/24 05:38:07;;;;;;;17.30;11.90;;;;;;;5.39;81.51;98932.95;127996;1279;106384;-78
2024/03/24 05:41:14;;;;;;;17.90;13.00;;;;;;;5.38;81.40;98935.62;128076;1283;108771;-80
2024/03/24 05:44:19;;;;;;;17.30;13.30;;;;;;;5.44;81.47;98940.06;128114;1281;106878;-81
2024/03/24 05:47:24;;;;;;;19.20;13.90;;;;;;;5.55;81.31;98936.73;128076;1283;108572;-81
2024/03/24 05:50:30;;;;;;;20.60;14.60;;;;;;;5.57;81.29;98934.88;128081;1284;106782;-78
2024/03/24 05:53:35;;;;;;;21.40;14.90;;;;;;;5.59;81.30;98930.89;127960;1284;107163;-78
2024/03/24 05:56:40;;;;;;;40.50;18.30;;;;;;;5.59;81.14;98930.00;128016;1284;107920;-80
2024/03/24 05:59:45;;;;;;;22.80;14.30;;;;;;;5.59;81.29;98925.88;128511;1279;106240;-78
2024/03/24 06:02:50;;;;;;;23.00;15.00;;;;;;;5.63;81.38;98922.91;128437;1279;108825;-77
2024/03/24 06:05:56;;;;;;;19.40;12.60;;;;;;;5.66;81.30;98924.86;128463;1281;108871;-78
2024/03/24 06:09:01;;;;;;;31.40;15.60;;;;;;;5.67;81.24;98930.23;128464;1282;107973;-79
2024/03/24 06:12:08;;;;;;;34.90;22.40;;;;;;;5.72;81.02;98929.87;128153;1281;108594;-78
2024/03/24 06:15:13;;;;;;;62.60;27.60;;;;;;;5.76;81.04;98925.98;128062;1281;108690;-78
2024/03/24 06:18:19;;;;;;;57.90;24.30;;;;;;;5.79;80.80;98929.72;128079;1283;108894;-77
2024/03/24 06:21:24;;;;;;;44.10;22.50;;;;;;;5.79;80.91;98934.09;128097;1282;106526;-78
2024/03/24 06:24:29;;;;;;;37.80;19.80;;;;;;;5.78;80.53;98934.40;128207;1279;108960;-78
2024/03/24 06:27:35;;;;;;;25.10;16.00;;;;;;;5.62;80.44;98936.52;128355;1282;108830;-79
2024/03/24 06:30:40;;;;;;;48.00;26.80;;;;;;;5.46;80.71;98936.38;128428;1279;108659;-79
2024/03/24 06:33:45;;;;;;;179.70;85.80;;;;;;;5.40;80.77;98935.37;128144;1278;108509;-79
2024/03/24 06:36:50;;;;;;;175.90;71.30;;;;;;;5.42;81.06;98933.88;127934;1278;107260;-78
2024/03/24 06:39:57;;;;;;;338.10;143.50;;;;;;;5.50;81.13;98928.71;128037;1279;107970;-79
2024/03/24 06:43:03;;;;;;;60.00;24.50;;;;;;;5.63;80.87;98929.54;127983;1284;107800;-79
2024/03/24 06:46:08;;;;;;;71.20;29.60;;;;;;;5.67;80.57;98933.83;128215;1284;108558;-79
2024/03/24 06:49:13;;;;;;;40.80;22.00;;;;;;;5.75;80.51;98930.85;128079;1278;106780;-80
2024/03/24 06:52:18;;;;;;;61.90;31.40;;;;;;;5.83;80.45;98935.97;128300;1283;107679;-79
2024/03/24 06:55:25;;;;;;;58.10;27.50;;;;;;;5.87;80.11;98937.17;128170;1279;106685;-78
2024/03/24 06:58:30;;;;;;;47.30;26.10;;;;;;;5.84;80.16;98932.92;128097;1279;108478;-79
2024/03/24 07:01:35;;;;;;;38.00;18.30;;;;;;;5.76;79.53;98938.14;127916;1282;108812;-79
2024/03/24 07:04:40;;;;;;;48.90;22.10;;;;;;;5.54;79.72;98940.48;127978;1278;106907;-79
2024/03/24 07:07:45;;;;;;;71.10;30.00;;;;;;;5.42;80.51;98943.61;128283;1281;108459;-85
2024/03/24 07:10:53;;;;;;;129.40;40.90;;;;;;;5.47;80.73;98943.10;128292;1277;107574;-83
2024/03/24 07:13:59;;;;;;;132.80;41.10;;;;;;;5.58;80.73;98940.15;128030;1278;106917;-79
2024/03/24 07:17:04;;;;;;;265.70;79.50;;;;;;;5.73;80.36;98938.25;128050;1284;108250;-78
2024/03/24 07:20:11;;;;;;;38.60;16.90;;;;;;;5.87;80.35;98935.98;128094;1281;105679;-78
2024/03/24 07:23:16;;;;;;;472.10;153.90;;;;;;;6.06;80.15;98929.98;128360;1281;107689;-78
2024/03/24 07:26:21;;;;;;;57.70;23.80;;;;;;;6.27;80.16;98924.70;128300;1279;108742;-78
2024/03/24 07:29:28;;;;;;;122.00;65.70;;;;;;;6.39;79.20;98918.36;128363;1279;106435;-81
2024/03/24 07:32:33;;;;;;;57.30;31.10;;;;;;;6.57;79.22;98920.66;128314;1279;108825;-78
2024/03/24 07:35:38;;;;;;;78.40;50.00;;;;;;;6.70;79.39;98925.04;128337;1279;108469;-78
2024/03/24 07:38:44;;;;;;;29.80;18.20;;;;;;;6.85;78.86;98929.92;128208;1284;107797;-78
2024/03/24 07:41:49;;;;;;;19.20;13.30;;;;;;;6.83;78.43;98937.83;128148;1282;107162;-79
2024/03/24 07:44:54;;;;;;;60.50;29.70;;;;;;;6.89;79.22;98935.70;128022;1281;107719;-79
2024/03/24 07:47:59;;;;;;;126.00;52.20;;;;;;;7.05;79.10;98938.62;128214;1284;107951;-77
2024/03/24 07:51:05;;;;;;;183.60;73.20;;;;;;;7.11;78.49;98940.52;128648;1279;107831;-80
2024/03/24 07:54:10;;;;;;;161.20;63.70;;;;;;;7.12;78.56;98941.65;128973;1281;107459;-80
2024/03/24 07:57:15;;;;;;;165.60;62.30;;;;;;;7.07;76.52;98948.30;128866;1281;108105;-79
2024/03/24 08:00:21;;;;;;;128.50;50.70;;;;;;;7.08;78.41;98950.89;128734;1281;107811;-80
2024/03/24 08:03:26;;;;;;;176.60;70.80;;;;;;;7.32;78.98;98955.27;128988;1276;106614;-79
2024/03/24 08:06:32;;;;;;;363.70;175.30;;;;;;;7.59;78.53;98962.59;128945;1281;107599;-80
2024/03/24 08:09:38;;;;;;;144.10;54.10;;;;;;;7.77;77.77;98957.34;128932;1281;107393;-81
2024/03/24 08:12:43;;;;;;;122.30;44.90;;;;;;;7.88;76.36;98957.87;128882;1281;107817;-80
2024/03/24 08:15:48;;;;;;;219.30;89.90;;;;;;;7.81;76.36;98960.52;128174;1281;106753;-79
2024/03/24 08:18:53;;;;;;;378.80;164.10;;;;;;;7.86;77.33;98960.05;128314;1283;106625;-80
2024/03/24 08:21:58;;;;;;;33.70;15.20;;;;;;;7.78;75.44;98960.86;128494;1281;108451;-79
2024/03/24 08:25:04;;;;;;;141.80;72.60;;;;;;;7.54;75.93;98966.31;128499;1276;108556;-79
2024/03/24 08:28:10;;;;;;;94.10;50.70;;;;;;;7.46;76.63;98966.97;128524;1281;107239;-81
2024/03/24 08:31:15;;;;;;;36.50;19.60;;;;;;;7.45;76.72;98967.42;128429;1281;107349;-80
2024/03/24 08:34:20;;;;;;;70.10;37.80;;;;;;;7.35;76.43;98971.55;128495;1281;107172;-80
2024/03/24 08:37:25;;;;;;;37.80;21.90;;;;;;;7.21;75.31;98971.46;128364;1281;106451;-80
2024/03/24 08:40:31;;;;;;;89.70;53.80;;;;;;;7.13;75.67;98970.89;128351;1281;106553;-80
2024/03/24 08:43:36;;;;;;;69.80;36.80;;;;;;;7.19;75.61;98970.38;128207;1281;108661;-80
2024/03/24 08:46:41;;;;;;;61.20;32.60;;;;;;;7.30;76.08;98962.23;128236;1281;106334;-80
2024/03/24 08:49:46;;;;;;;29.10;18.50;;;;;;;7.41;75.53;98965.08;128476;1281;107559;-80
2024/03/24 08:52:52;;;;;;;139.00;73.90;;;;;;;7.48;75.47;98963.95;128303;1281;107757;-80
2024/03/24 08:55:57;;;;;;;64.50;33.70;;;;;;;7.55;75.70;98961.59;128189;1282;108818;-80
2024/03/24 08:59:02;;;;;;;54.90;29.50;;;;;;;7.65;75.52;98965.17;128215;1281;106425;-81
2024/03/24 09:02:07;;;;;;;296.20;154.70;;;;;;;7.89;75.22;98966.32;128216;1281;108460;-80
2024/03/24 09:05:12;;;;;;;67.60;35.70;;;;;;;8.19;75.17;98957.72;128228;1281;108061;-80
2024/03/24 09:08:18;;;;;;;48.10;26.70;;;;;;;8.43;74.45;98948.86;128247;1281;108033;-80
2024/03/24 09:11:23;;;;;;;48.20;28.40;;;;;;;8.63;74.56;98944.45;128525;1282;107341;-80
2024/03/24 09:14:28;;;;;;;137.20;57.00;;;;;;;8.94;74.58;98941.34;128382;1281;106602;-80
2024/03/24 09:17:33;;;;;;;48.40;23.90;;;;;;;9.20;74.30;98942.85;128544;1276;108528;-80
2024/03/24 09:20:38;;;;;;;47.10;24.00;;;;;;;9.41;74.17;98940.33;128386;1279;106937;-80
2024/03/24 09:23:43;;;;;;;45.90;24.50;;;;;;;9.53;73.38;98939.71;128286;1293;108897;-81
2024/03/24 09:26:51;;;;;;;20.70;12.20;;;;;;;9.55;73.51;98940.73;128198;1282;108457;-80
2024/03/24 09:29:56;;;;;;;31.70;17.20;;;;;;;9.57;73.04;98946.86;128254;1282;108698;-80
2024/03/24 09:33:01;;;;;;;16.70;11.40;;;;;;;9.46;69.61;98944.39;128444;1282;107710;-80
2024/03/24 09:36:07;;;;;;;39.80;28.30;;;;;;;9.24;69.83;98943.45;128481;1277;109509;-80
2024/03/24 09:39:13;;;;;;;47.30;31.70;;;;;;;9.25;71.89;98939.95;128313;1281;107744;-80
2024/03/24 09:42:21;;;;;;;42.90;29.40;;;;;;;9.47;71.71;98939.20;128523;1281;107581;-80
2024/03/24 09:45:29;;;;;;;74.80;44.50;;;;;;;9.63;70.70;98939.39;128272;1281;108429;-81
2024/03/24 09:48:38;;;;;;;17.50;11.70;;;;;;;9.62;68.64;98940.67;128838;1280;106882;-80
2024/03/24 09:51:46;;;;;;;46.00;34.20;;;;;;;9.45;69.36;98937.85;128622;1281;106586;-80
2024/03/24 09:54:51;;;;;;;40.00;29.60;;;;;;;9.69;69.90;98936.27;128658;1282;109060;-81
2024/03/24 09:57:57;;;;;;;28.80;22.90;;;;;;;9.93;70.60;98932.73;128499;1292;109245;-81
2024/03/24 10:01:03;;;;;;;28.60;23.30;;;;;;;10.12;69.89;98932.03;128682;1285;107754;-81
2024/03/24 10:04:08;;;;;;;25.00;17.70;;;;;;;10.30;70.17;98925.91;128409;1284;108735;-81
2024/03/24 10:07:14;;;;;;;29.80;23.50;;;;;;;10.51;70.09;98922.85;128268;1280;107917;-80
2024/03/24 10:10:19;;;;;;;20.90;16.40;;;;;;;10.67;69.70;98920.95;128192;1282;108735;-80
2024/03/24 10:13:24;;;;;;;34.00;27.80;;;;;;;10.65;68.57;98920.06;128458;1292;107844;-81
2024/03/24 10:16:30;;;;;;;85.10;62.50;;;;;;;10.53;68.72;98916.42;128689;1283;109351;-80
2024/03/24 10:19:35;;;;;;;45.90;34.80;;;;;;;10.53;69.55;98916.42;128955;1281;106925;-82
2024/03/24 10:22:40;;;;;;;40.50;29.50;;;;;;;10.59;68.80;98914.73;129090;1281;108795;-80
2024/03/24 10:25:57;;;;;;;32.30;23.40;;;;;;;10.67;68.99;98914.58;128715;1283;107126;-80
2024/03/24 10:29:04;;;;;;;27.80;22.70;;;;;;;10.62;68.13;98913.13;128171;1279;106818;-80
2024/03/24 10:32:11;;;;;;;19.80;15.50;;;;;;;10.47;68.46;98911.35;128378;1282;107894;-79
2024/03/24 10:35:16;;;;;;;16.60;11.80;;;;;;;10.40;67.90;98902.30;128297;1292;107835;-79
2024/03/24 10:38:22;;;;;;;33.00;24.60;;;;;;;10.21;67.46;98897.89;128306;1277;107083;-79
2024/03/24 10:41:28;;;;;;;42.00;35.90;;;;;;;10.10;67.14;98893.02;128471;1277;106773;-80
2024/03/24 10:44:34;;;;;;;34.40;27.30;;;;;;;10.06;66.62;98895.13;128420;1282;106550;-79
2024/03/24 10:47:39;;;;;;;20.70;13.00;;;;;;;10.04;65.43;98890.71;128493;1283;106455;-80
2024/03/24 10:50:45;;;;;;;156.90;86.40;;;;;;;9.96;66.60;98889.94;128404;1282;107838;-79
2024/03/24 10:53:53;;;;;;;85.30;46.40;;;;;;;10.00;66.88;98880.15;128150;1279;108893;-80
2024/03/24 10:57:00;;;;;;;103.80;56.00;;;;;;;10.17;66.76;98880.27;128233;1279;107773;-79
2024/03/24 11:00:07;;;;;;;29.30;16.70;;;;;;;10.35;66.04;98877.45;128027;1279;108438;-79
2024/03/24 11:03:13;;;;;;;24.30;14.50;;;;;;;10.58;65.20;98872.52;128204;1282;106016;-80
2024/03/24 11:06:19;;;;;;;48.30;31.00;;;;;;;10.73;65.46;98863.80;128541;1281;107794;-79
2024/03/24 11:09:24;;;;;;;22.50;14.60;;;;;;;10.96;65.57;98859.89;128439;1279;108861;-79
2024/03/24 11:12:30;;;;;;;16.70;11.00;;;;;;;11.12;65.68;98863.77;128340;1279;108019;-81
2024/03/24 11:15:36;;;;;;;38.70;25.70;;;;;;;11.07;63.52;98856.77;128410;1281;106810;-80
2024/03/24 11:18:42;;;;;;;51.20;33.10;;;;;;;10.90;64.17;98854.62;128063;1284;108172;-79
2024/03/24 11:21:51;;;;;;;53.40;28.40;;;;;;;11.00;64.72;98857.31;128400;1282;108855;-79
2024/03/24 11:24:56;;;;;;;30.10;20.90;;;;;;;11.15;63.87;98856.43;128166;1285;107976;-79
2024/03/24 11:28:02;;;;;;;59.20;39.00;;;;;;;11.21;63.13;98854.84;128233;1279;107516;-79
2024/03/24 11:31:15;;;;;;;54.60;36.10;;;;;;;11.18;62.43;98851.61;128117;1283;107366;-79
2024/03/24 11:34:20;;;;;;;47.70;32.90;;;;;;;11.14;62.20;98844.31;128185;1282;108564;-79
2024/03/24 11:37:31;;;;;;;32.20;24.80;;;;;;;11.19;61.89;98838.35;128055;1283;107882;-79
2024/03/24 11:40:39;;;;;;;12.80;10.40;;;;;;;11.21;62.30;98832.95;128212;1284;108412;-79
2024/03/24 11:43:44;;;;;;;19.90;12.10;;;;;;;11.27;60.84;98833.98;128214;1284;108789;-79
2024/03/24 11:47:02;;;;;;;18.20;12.70;;;;;;;11.27;61.10;98831.64;128020;1283;105794;-79
2024/03/24 11:50:08;;;;;;;135.50;70.10;;;;;;;11.42;61.35;98825.73;127902;1282;106669;-79
2024/03/24 11:53:18;;;;;;;46.00;30.30;;;;;;;11.57;60.92;98828.25;127929;1283;107988;-78
2024/03/24 11:56:25;;;;;;;33.00;24.20;;;;;;;11.59;60.64;98832.42;128110;1284;108694;-79
2024/03/24 11:59:30;;;;;;;12.50;9.20;;;;;;;11.52;61.78;98830.28;128198;1282;107881;-79
2024/03/24 12:02:35;;;;;;;10.70;6.30;;;;;;;11.50;61.78;98830.02;128396;1284;108912;-79
2024/03/24 12:05:40;;;;;;;8.60;5.90;;;;;;;11.49;61.94;98827.70;128294;1280;108817;-79
2024/03/24 12:08:47;;;;;;;12.80;9.90;;;;;;;11.53;61.71;98824.94;128248;1285;107709;-80
2024/03/24 12:11:55;;;;;;;10.30;8.50;;;;;;;11.59;60.79;98825.65;128388;1285;108556;-79
2024/03/24 12:15:00;;;;;;;9.00;8.00;;;;;;;11.53;58.90;98824.09;128026;1292;108844;-79
2024/03/24 12:18:11;;;;;;;6.60;5.90;;;;;;;11.48;59.97;98821.91;128058;1285;108774;-81
2024/03/24 12:21:17;;;;;;;13.00;11.10;;;;;;;11.52;59.81;98816.83;128338;1282;106560;-80
2024/03/24 12:24:22;;;;;;;15.30;12.20;;;;;;;11.48;57.89;98812.87;128542;1292;106110;-80
2024/03/24 12:27:28;;;;;;;13.00;10.90;;;;;;;11.42;58.21;98813.64;128501;1292;108736;-80
2024/03/24 12:30:33;;;;;;;6.50;5.50;;;;;;;11.49;58.33;98803.42;128505;1290;107602;-81
2024/03/24 12:33:38;;;;;;;14.80;13.20;;;;;;;11.43;55.51;98806.88;128256;1287;107774;-80
2024/03/24 12:36:43;;;;;;;13.30;9.50;;;;;;;11.31;57.69;98806.41;128387;1283;106603;-80
2024/03/24 12:39:51;;;;;;;7.70;6.40;;;;;;;11.21;58.31;98807.73;128470;1285;107765;-80
2024/03/24 12:43:10;;;;;;;6.40;5.60;;;;;;;11.17;59.06;98799.23;128455;1292;106831;-80
2024/03/24 12:46:25;;;;;;;173.30;71.30;;;;;;;11.21;59.43;98794.66;128463;1280;107824;-81
2024/03/24 12:49:33;;;;;;;65.30;29.10;;;;;;;11.19;58.95;98789.99;128097;1292;108540;-81
2024/03/24 12:52:38;;;;;;;16.10;8.90;;;;;;;10.95;57.29;98784.75;128464;1283;108893;-81
2024/03/24 12:55:46;;;;;;;94.30;50.00;;;;;;;10.59;57.42;98789.07;128478;1292;109175;-81
2024/03/24 12:58:54;;;;;;;115.50;62.30;;;;;;;10.40;57.65;98781.86;128556;1292;107077;-81
2024/03/24 13:02:00;;;;;;;21.90;11.80;;;;;;;10.36;57.64;98782.40;128499;1292;107944;-81
2024/03/24 13:05:07;;;;;;;17.30;10.90;;;;;;;10.23;57.38;98780.91;128628;1282;107437;-81
2024/03/24 13:08:15;;;;;;;20.30;16.10;;;;;;;10.15;57.94;98777.98;128483;1292;108720;-81
2024/03/24 13:11:21;;;;;;;37.30;31.50;;;;;;;10.08;57.47;98774.64;128378;1286;108563;-81
2024/03/24 13:14:26;;;;;;;17.90;13.40;;;;;;;10.00;57.00;98770.60;128201;1285;107991;-81
2024/03/24 13:17:33;;;;;;;12.90;9.50;;;;;;;9.89;56.27;98769.29;128017;1297;108715;-80
2024/03/24 13:20:45;;;;;;;8.00;5.60;;;;;;;9.90;57.09;98771.59;128256;1280;106609;-81
2024/03/24 13:23:50;;;;;;;12.70;11.40;;;;;;;9.95;55.47;98767.44;128707;1279;107826;-81
2024/03/24 13:27:00;;;;;;;8.60;7.20;;;;;;;10.03;53.94;98769.84;128671;1280;107232;-80
2024/03/24 13:30:07;;;;;;;3.20;2.40;;;;;;;10.01;53.50;98767.44;128530;1282;107618;-81
2024/03/24 13:33:14;;;;;;;5.30;4.50;;;;;;;9.86;53.90;98767.00;128547;1282;106331;-81
2024/03/24 13:36:35;;;;;;;3.60;2.50;;;;;;;9.78;54.83;98764.56;128438;1283;106417;-81
2024/03/24 13:39:49;;;;;;;3.40;2.50;;;;;;;9.81;55.12;98761.65;128338;1277;107287;-82
2024/03/24 13:43:07;;;;;;;3.20;2.00;;;;;;;9.88;54.95;98761.94;128361;1281;107962;-81
2024/03/24 13:46:19;;;;;;;2.90;2.10;;;;;;;10.02;54.66;98764.86;128589;1291;108816;-81
2024/03/24 13:49:25;;;;;;;3.50;3.00;;;;;;;10.14;54.62;98764.06;128696;1283;107582;-81
2024/03/24 13:52:31;;;;;;;5.10;4.40;;;;;;;10.13;54.03;98765.61;128499;1282;107785;-81
2024/03/24 13:55:37;;;;;;;8.50;7.40;;;;;;;10.15;54.25;98766.65;128514;1280;106678;-81
2024/03/24 13:58:43;;;;;;;9.40;6.40;;;;;;;10.19;53.97;98764.66;128890;1278;108664;-81
2024/03/24 14:01:48;;;;;;;43.00;27.60;;;;;;;10.25;53.47;98770.19;129090;1281;107518;-80
2024/03/24 14:04:55;;;;;;;20.00;13.20;;;;;;;10.29;53.29;98765.84;128258;1290;108546;-84
2024/03/24 14:08:01;;;;;;;53.40;35.50;;;;;;;10.33;52.93;98763.61;128526;1282;108745;-83